createdAt,value
2022-10-14T00:00:09.782Z,98744.00
2022-10-14T00:02:57.160Z,98755.00
2022-10-14T00:05:44.680Z,98740.00
2022-10-14T00:08:32.274Z,98745.00
2022-10-14T00:11:27.561Z,98738.00
2022-10-14T00:14:19.541Z,98735.00
2022-10-14T00:17:06.966Z,98735.00
2022-10-14T00:19:54.399Z,98734.00
2022-10-14T00:22:41.811Z,98739.00
2022-10-14T00:25:29.629Z,98731.00
2022-10-14T00:28:17.560Z,98731.00
2022-10-14T00:31:05.214Z,98729.00
2022-10-14T00:33:52.670Z,98722.00
2022-10-14T00:36:41.279Z,98720.00
2022-10-14T00:39:28.744Z,98721.00
2022-10-14T00:42:16.327Z,98725.00
2022-10-14T00:45:13.694Z,98722.00
2022-10-14T00:48:01.092Z,98722.00
2022-10-14T00:50:54.482Z,98722.00
2022-10-14T00:53:44.509Z,98721.00
2022-10-14T00:56:33.194Z,98722.00
2022-10-14T00:59:21.099Z,98710.00
2022-10-14T01:02:08.659Z,98707.00
2022-10-14T01:04:56.560Z,98714.00
2022-10-14T01:08:15.340Z,98729.00
2022-10-14T01:11:15.534Z,98725.00
2022-10-14T01:14:53.200Z,98726.00
2022-10-14T01:17:52.245Z,98726.00
2022-10-14T01:21:03.554Z,98723.00
2022-10-14T01:24:17.589Z,98725.00
2022-10-14T01:27:47.845Z,98720.00
2022-10-14T01:30:46.227Z,98709.00
2022-10-14T01:33:43.685Z,98722.00
2022-10-14T01:36:48.919Z,98716.00
2022-10-14T01:39:47.695Z,98725.00
2022-10-14T01:42:40.224Z,98729.00
2022-10-14T01:45:32.397Z,98721.00
2022-10-14T01:48:28.101Z,98731.00
2022-10-14T01:51:27.076Z,98737.00
2022-10-14T01:54:35.046Z,98724.00
2022-10-14T01:57:31.940Z,98733.00
2022-10-14T02:00:19.716Z,98740.00
2022-10-14T02:03:07.230Z,98735.00
2022-10-14T02:06:01.679Z,98724.00
2022-10-14T02:09:38.405Z,98738.00
2022-10-14T02:13:20.899Z,98726.00
2022-10-14T02:16:56.155Z,98726.00
2022-10-14T02:20:16.347Z,98729.00
2022-10-14T02:23:28.144Z,98721.00
2022-10-14T02:26:17.827Z,98729.00
2022-10-14T02:29:06.575Z,98731.00
2022-10-14T02:31:56.244Z,98733.00
2022-10-14T02:34:49.642Z,98737.00
2022-10-14T02:37:39.471Z,98747.00
2022-10-14T02:40:45.742Z,98740.00
2022-10-14T02:43:33.466Z,98748.00
2022-10-14T02:46:22.913Z,98752.00
2022-10-14T02:49:10.701Z,98754.00
2022-10-14T02:51:58.124Z,98759.00
2022-10-14T02:54:45.700Z,98779.00
2022-10-14T02:57:33.149Z,98821.00
2022-10-14T03:00:21.289Z,98801.00
2022-10-14T03:03:09.030Z,98787.00
2022-10-14T03:05:56.734Z,98777.00
2022-10-14T03:08:44.215Z,98772.00
2022-10-14T03:11:31.646Z,98784.00
2022-10-14T03:14:19.099Z,98784.00
2022-10-14T03:17:06.591Z,98777.00
2022-10-14T03:19:54.104Z,98774.00
2022-10-14T03:22:42.069Z,98774.00
2022-10-14T03:25:29.520Z,98776.00
2022-10-14T03:28:17.060Z,98775.00
2022-10-14T03:31:04.680Z,98773.00
2022-10-14T03:33:52.110Z,98772.00
2022-10-14T03:36:39.554Z,98772.00
2022-10-14T03:39:26.954Z,98791.00
2022-10-14T03:42:14.920Z,98782.00
2022-10-14T03:45:02.365Z,98782.00
2022-10-14T03:47:49.864Z,98797.00
2022-10-14T03:50:37.325Z,98804.00
2022-10-14T03:53:24.774Z,98803.00
2022-10-14T03:56:12.585Z,98800.00
2022-10-14T03:59:00.154Z,98793.00
2022-10-14T04:01:47.663Z,98797.00
2022-10-14T04:04:35.170Z,98792.00
2022-10-14T04:07:22.960Z,98786.00
2022-10-14T04:10:10.391Z,98795.00
2022-10-14T04:12:57.856Z,98798.00
2022-10-14T04:15:45.319Z,98786.00
2022-10-14T04:18:33.635Z,98787.00
2022-10-14T04:21:21.411Z,98773.00
2022-10-14T04:24:08.990Z,98781.00
2022-10-14T04:26:56.769Z,98779.00
2022-10-14T04:29:44.599Z,98769.00
2022-10-14T04:32:32.094Z,98763.00
2022-10-14T04:35:19.754Z,98761.00
2022-10-14T04:38:07.340Z,98757.00
2022-10-14T04:40:56.042Z,98756.00
2022-10-14T04:43:43.657Z,98741.00
2022-10-14T04:46:31.643Z,98748.00
2022-10-14T04:49:19.366Z,98754.00
2022-10-14T04:52:07.079Z,98750.00
2022-10-14T04:54:54.614Z,98753.00
2022-10-14T04:57:43.977Z,98768.00
2022-10-14T05:00:31.460Z,98767.00
2022-10-14T05:03:19.042Z,98762.00
2022-10-14T05:06:06.840Z,98757.00
2022-10-14T05:08:54.594Z,98755.00
2022-10-14T05:11:42.067Z,98765.00
2022-10-14T05:14:29.905Z,98760.00
2022-10-14T05:17:17.425Z,98756.00
2022-10-14T05:20:07.136Z,98751.00
2022-10-14T05:22:54.765Z,98749.00
2022-10-14T05:25:43.222Z,98748.00
2022-10-14T05:28:31.318Z,98739.00
2022-10-14T05:31:19.452Z,98740.00
2022-10-14T05:34:07.500Z,98745.00
2022-10-14T05:36:57.819Z,98743.00
2022-10-14T05:39:45.303Z,98747.00
2022-10-14T05:42:32.824Z,98750.00
2022-10-14T05:45:20.471Z,98744.00
2022-10-14T05:48:07.980Z,98740.00
2022-10-14T05:50:55.551Z,98740.00
2022-10-14T05:53:43.677Z,98738.00
2022-10-14T05:56:31.380Z,98738.00
2022-10-14T05:59:18.940Z,98739.00
2022-10-14T06:02:06.966Z,98737.00
2022-10-14T06:04:54.561Z,98741.00
2022-10-14T06:07:42.592Z,98743.00
2022-10-14T06:10:30.119Z,98741.00
2022-10-14T06:13:18.240Z,98740.00
2022-10-14T06:16:09.206Z,98737.00
2022-10-14T06:18:56.720Z,98741.00
2022-10-14T06:21:45.219Z,98748.00
2022-10-14T06:24:32.620Z,98745.00
2022-10-14T06:27:20.280Z,98740.00
2022-10-14T06:30:09.020Z,98740.00
2022-10-14T06:32:56.470Z,98741.00
2022-10-14T06:35:43.924Z,98747.00
2022-10-14T06:38:31.689Z,98745.00
2022-10-14T06:41:19.189Z,98739.00
2022-10-14T06:44:06.705Z,98739.00
2022-10-14T06:46:54.099Z,98745.00
2022-10-14T06:49:41.559Z,98747.00
2022-10-14T06:52:29.004Z,98742.00
2022-10-14T06:55:17.184Z,98739.00
2022-10-14T06:58:04.675Z,98741.00
2022-10-14T07:00:52.293Z,98741.00
2022-10-14T07:03:40.209Z,98731.00
2022-10-14T07:06:27.592Z,98742.00
2022-10-14T07:09:15.098Z,98745.00
2022-10-14T07:12:02.622Z,98744.00
2022-10-14T07:14:50.125Z,98738.00
2022-10-14T07:17:38.454Z,98752.00
2022-10-14T07:20:26.044Z,98753.00
2022-10-14T07:23:13.944Z,98751.00
2022-10-14T07:26:02.201Z,98756.00
2022-10-14T07:28:49.778Z,98756.00
2022-10-14T07:31:37.644Z,98763.00
2022-10-14T07:34:25.231Z,98764.00
2022-10-14T07:37:12.710Z,98754.00
2022-10-14T07:40:00.534Z,98755.00
2022-10-14T07:42:48.660Z,98753.00
2022-10-14T07:45:40.403Z,98756.00
2022-10-14T07:48:32.621Z,98753.00
2022-10-14T07:51:27.574Z,98762.00
2022-10-14T07:54:21.221Z,98762.00
2022-10-14T07:57:08.700Z,98764.00
2022-10-14T07:59:56.476Z,98764.00
2022-10-14T08:02:44.243Z,98764.00
2022-10-14T08:05:39.198Z,98763.00
2022-10-14T08:08:28.579Z,98771.00
2022-10-14T08:11:26.460Z,98770.00
2022-10-14T08:14:14.784Z,98767.00
2022-10-14T08:17:02.306Z,98769.00
2022-10-14T08:19:52.584Z,98768.00
2022-10-14T08:22:39.991Z,98767.00
2022-10-14T08:25:28.364Z,98768.00
2022-10-14T08:28:16.179Z,98773.00
2022-10-14T08:31:03.609Z,98765.00
2022-10-14T08:33:51.442Z,98766.00
2022-10-14T08:36:38.993Z,98774.00
2022-10-14T08:39:26.625Z,98770.00
2022-10-14T08:42:48.281Z,98761.00
2022-10-14T08:45:42.640Z,98763.00
2022-10-14T08:48:34.125Z,98760.00
2022-10-14T08:51:22.470Z,98762.00
2022-10-14T08:54:18.796Z,98761.00
2022-10-14T08:57:14.501Z,98756.00
2022-10-14T09:00:03.111Z,98762.00
2022-10-14T09:02:52.871Z,98758.00
2022-10-14T09:05:41.157Z,98765.00
2022-10-14T09:08:40.774Z,98757.00
2022-10-14T09:11:34.389Z,98758.00
2022-10-14T09:14:29.564Z,98755.00
2022-10-14T09:17:25.984Z,98763.00
2022-10-14T09:20:22.951Z,98760.00
2022-10-14T09:23:25.765Z,98753.00
2022-10-14T09:26:20.045Z,98744.00
2022-10-14T09:29:28.006Z,98743.00
2022-10-14T09:32:31.695Z,98740.00
2022-10-14T09:35:26.584Z,98748.00
2022-10-14T09:38:15.694Z,98744.00
2022-10-14T09:41:03.140Z,98739.00
2022-10-14T09:44:26.254Z,98726.00
2022-10-14T09:47:19.020Z,98733.00
2022-10-14T09:50:14.221Z,98732.00
2022-10-14T09:53:15.485Z,98731.00
2022-10-14T09:56:07.165Z,98727.00
2022-10-14T09:58:57.484Z,98730.00
2022-10-14T10:01:57.950Z,98728.00
2022-10-14T10:04:47.900Z,98726.00
2022-10-14T10:07:36.825Z,98725.00
2022-10-14T10:10:24.745Z,98719.00
2022-10-14T10:13:46.624Z,98717.00
2022-10-14T10:16:37.000Z,98712.00
2022-10-14T10:19:29.650Z,98717.00
2022-10-14T10:25:19.603Z,98708.00
2022-10-14T10:28:20.392Z,98701.00
2022-10-14T10:31:24.539Z,98696.00
2022-10-14T10:34:23.960Z,98701.00
2022-10-14T10:37:26.348Z,98696.00
2022-10-14T10:40:39.947Z,98690.00
2022-10-14T10:43:58.846Z,98676.00
2022-10-14T10:47:20.807Z,98676.00
2022-10-14T10:50:11.564Z,98673.00
2022-10-14T10:53:07.831Z,98678.00
2022-10-14T10:56:20.156Z,98670.00
2022-10-14T10:59:36.532Z,98664.00
2022-10-14T11:02:41.061Z,98659.00
2022-10-14T11:06:08.979Z,98649.00
2022-10-14T11:09:24.839Z,98650.00
2022-10-14T11:12:51.380Z,98649.00
2022-10-14T11:16:04.507Z,98646.00
2022-10-14T11:19:28.827Z,98641.00
2022-10-14T11:22:43.776Z,98640.00
2022-10-14T11:25:51.342Z,98631.00
2022-10-14T11:28:59.816Z,98631.00
2022-10-14T11:32:16.565Z,98625.00
2022-10-14T11:35:29.693Z,98623.00
2022-10-14T11:38:26.781Z,98614.00
2022-10-14T11:41:41.797Z,98612.00
2022-10-14T11:44:38.484Z,98618.00
2022-10-14T11:47:33.939Z,98613.00
2022-10-14T11:50:31.832Z,98606.00
2022-10-14T11:54:03.700Z,98601.00
2022-10-14T11:57:02.614Z,98598.00
2022-10-14T12:00:11.631Z,98593.00
2022-10-14T12:03:29.361Z,98598.00
2022-10-14T12:06:29.549Z,98586.00
2022-10-14T12:09:39.921Z,98585.00
2022-10-14T12:12:30.353Z,98578.00
2022-10-14T12:15:23.143Z,98579.00
2022-10-14T12:18:12.504Z,98575.00
2022-10-14T12:21:24.305Z,98579.00
2022-10-14T12:24:17.111Z,98576.00
2022-10-14T12:27:09.812Z,98566.00
2022-10-14T12:29:59.132Z,98562.00
2022-10-14T12:33:08.808Z,98557.00
2022-10-14T12:36:01.395Z,98553.00
2022-10-14T12:39:18.032Z,98553.00
2022-10-14T12:42:15.835Z,98549.00
2022-10-14T12:45:17.360Z,98548.00
2022-10-14T12:48:27.839Z,98548.00
2022-10-14T12:51:25.140Z,98539.00
2022-10-14T12:54:16.769Z,98540.00
2022-10-14T12:57:29.609Z,98525.00
2022-10-14T13:00:23.237Z,98530.00
2022-10-14T13:03:27.363Z,98536.00
2022-10-14T13:06:39.768Z,98527.00
2022-10-14T13:09:34.539Z,98529.00
2022-10-14T13:12:22.091Z,98524.00
2022-10-14T13:15:38.565Z,98530.00
2022-10-14T13:18:35.389Z,98526.00
2022-10-14T13:21:53.280Z,98529.00
2022-10-14T13:24:43.834Z,98527.00
2022-10-14T13:27:45.680Z,98516.00
2022-10-14T13:30:50.874Z,98514.00
2022-10-14T13:33:52.273Z,98510.00
2022-10-14T13:37:09.984Z,98512.00
2022-10-14T13:39:58.499Z,98498.00
2022-10-14T13:43:19.379Z,98500.00
2022-10-14T13:46:29.644Z,98491.00
2022-10-14T13:49:30.483Z,98482.00
2022-10-14T13:52:28.495Z,98481.00
2022-10-14T13:55:20.976Z,98480.00
2022-10-14T13:58:14.087Z,98478.00
2022-10-14T14:01:06.973Z,98486.00
2022-10-14T14:03:58.634Z,98488.00
2022-10-14T14:07:00.447Z,98486.00
2022-10-14T14:10:03.889Z,98483.00
2022-10-14T14:12:52.185Z,98485.00
2022-10-14T14:15:40.695Z,98484.00
2022-10-14T14:18:56.056Z,98479.00
2022-10-14T14:21:48.960Z,98475.00
2022-10-14T14:24:36.394Z,98473.00
2022-10-14T14:27:27.083Z,98475.00
2022-10-14T14:30:26.235Z,98471.00
2022-10-14T14:33:22.810Z,98475.00
2022-10-14T14:36:27.808Z,98462.00
2022-10-14T14:39:27.695Z,98455.00
2022-10-14T14:42:15.286Z,98452.00
2022-10-14T14:45:43.939Z,98448.00
2022-10-14T14:48:34.340Z,98447.00
2022-10-14T14:51:23.690Z,98447.00
2022-10-14T14:54:23.301Z,98443.00
2022-10-14T14:57:12.664Z,98444.00
2022-10-14T15:00:06.266Z,98439.00
2022-10-14T15:03:01.664Z,98436.00
2022-10-14T15:06:02.825Z,98439.00
2022-10-14T15:08:54.004Z,98434.00
2022-10-14T15:11:57.962Z,98441.00
2022-10-14T15:14:48.519Z,98436.00
2022-10-14T15:17:39.567Z,98433.00
2022-10-14T15:20:35.425Z,98432.00
2022-10-14T15:23:41.320Z,98431.00
2022-10-14T15:26:28.739Z,98428.00
2022-10-14T15:29:16.284Z,98428.00
2022-10-14T15:32:14.881Z,98432.00
2022-10-14T15:35:02.436Z,98422.00
2022-10-14T15:37:51.550Z,98428.00
2022-10-14T15:40:40.869Z,98427.00
2022-10-14T15:43:28.341Z,98432.00
2022-10-14T15:46:34.435Z,98432.00
2022-10-14T15:49:48.145Z,98431.00
2022-10-14T15:52:35.627Z,98432.00
2022-10-14T15:55:30.038Z,98437.00
2022-10-14T15:58:17.478Z,98435.00
2022-10-14T16:01:09.223Z,98434.00
2022-10-14T16:03:56.855Z,98433.00
2022-10-14T16:06:44.376Z,98432.00
2022-10-14T16:09:31.800Z,98426.00
2022-10-14T16:12:19.500Z,98425.00
2022-10-14T16:15:28.564Z,98427.00
2022-10-14T16:18:16.171Z,98419.00
2022-10-14T16:21:03.920Z,98419.00
2022-10-14T16:23:52.838Z,98419.00
2022-10-14T16:26:42.291Z,98417.00
2022-10-14T16:29:29.701Z,98421.00
2022-10-14T16:32:17.450Z,98422.00
2022-10-14T16:35:06.842Z,98413.00
2022-10-14T16:37:55.075Z,98411.00
2022-10-14T16:40:42.632Z,98415.00
2022-10-14T16:43:30.782Z,98417.00
2022-10-14T16:46:18.420Z,98411.00
2022-10-14T16:49:07.305Z,98411.00
2022-10-14T16:51:54.735Z,98407.00
2022-10-14T16:54:43.090Z,98403.00
2022-10-14T16:57:30.505Z,98405.00
2022-10-14T17:03:10.990Z,98406.00
2022-10-14T17:05:59.166Z,98411.00
2022-10-14T17:08:46.546Z,98414.00
2022-10-14T17:11:34.502Z,98408.00
2022-10-14T17:14:23.162Z,98404.00
2022-10-14T17:17:10.613Z,98424.00
2022-10-14T17:19:58.186Z,98426.00
2022-10-14T17:22:46.220Z,98438.00
2022-10-14T17:25:33.704Z,98437.00
2022-10-14T17:28:21.143Z,98438.00
2022-10-14T17:31:20.005Z,98436.00
2022-10-14T17:34:07.369Z,98432.00
2022-10-14T17:36:55.438Z,98431.00
2022-10-14T17:39:42.999Z,98435.00
2022-10-14T17:42:31.164Z,98440.00
2022-10-14T17:45:19.711Z,98433.00
2022-10-14T17:48:07.686Z,98432.00
2022-10-14T17:50:55.130Z,98430.00
2022-10-14T17:53:42.531Z,98433.00
2022-10-14T17:56:32.790Z,98431.00
2022-10-14T17:59:20.470Z,98431.00
2022-10-14T18:02:17.338Z,98441.00
2022-10-14T18:05:05.361Z,98439.00
2022-10-14T18:07:52.827Z,98446.00
2022-10-14T18:10:40.345Z,98443.00
2022-10-14T18:13:27.857Z,98445.00
2022-10-14T18:16:16.405Z,98446.00
2022-10-14T18:19:16.904Z,98445.00
2022-10-14T18:22:06.719Z,98441.00
2022-10-14T18:24:54.154Z,98444.00
2022-10-14T18:27:42.539Z,98436.00
2022-10-14T18:30:29.970Z,98438.00
2022-10-14T18:33:17.369Z,98433.00
2022-10-14T18:36:07.390Z,98439.00
2022-10-14T18:39:01.583Z,98440.00
2022-10-14T18:41:49.065Z,98439.00
2022-10-14T18:44:36.460Z,98435.00
2022-10-14T18:47:24.255Z,98440.00
2022-10-14T18:50:11.637Z,98443.00
2022-10-14T18:52:59.520Z,98443.00
2022-10-14T18:55:46.935Z,98436.00
2022-10-14T18:58:37.290Z,98437.00
2022-10-14T19:01:26.407Z,98432.00
2022-10-14T19:04:15.651Z,98421.00
2022-10-14T19:07:03.054Z,98425.00
2022-10-14T19:09:52.912Z,98431.00
2022-10-14T19:12:43.039Z,98419.00
2022-10-14T19:15:44.520Z,98427.00
2022-10-14T19:18:33.376Z,98428.00
2022-10-14T19:21:22.687Z,98443.00
2022-10-14T19:24:12.287Z,98436.00
2022-10-14T19:26:59.780Z,98440.00
2022-10-14T19:29:47.253Z,98440.00
2022-10-14T19:32:34.830Z,98438.00
2022-10-14T19:35:22.250Z,98436.00
2022-10-14T19:38:09.655Z,98432.00
2022-10-14T19:41:01.928Z,98433.00
2022-10-14T19:43:49.385Z,98436.00
2022-10-14T19:46:37.370Z,98442.00
2022-10-14T19:49:24.899Z,98450.00
2022-10-14T19:52:12.294Z,98441.00
2022-10-14T19:54:59.656Z,98445.00
2022-10-14T19:57:47.095Z,98436.00
2022-10-14T20:00:35.601Z,98428.00
2022-10-14T20:03:23.054Z,98428.00
2022-10-14T20:06:13.374Z,98432.00
2022-10-14T20:09:01.493Z,98424.00
2022-10-14T20:11:48.945Z,98426.00
2022-10-14T20:14:36.356Z,98422.00
2022-10-14T20:17:23.790Z,98426.00
2022-10-14T20:20:11.986Z,98422.00
2022-10-14T20:22:59.420Z,98414.00
2022-10-14T20:25:47.514Z,98415.00
2022-10-14T20:28:37.022Z,98416.00
2022-10-14T20:31:27.859Z,98413.00
2022-10-14T20:34:15.305Z,98415.00
2022-10-14T20:37:04.035Z,98414.00
2022-10-14T20:39:53.099Z,98423.00
2022-10-14T20:42:40.520Z,98413.00
2022-10-14T20:45:28.109Z,98414.00
2022-10-14T20:48:15.580Z,98415.00
2022-10-14T20:51:10.555Z,98416.00
2022-10-14T20:54:03.826Z,98410.00
2022-10-14T20:56:52.625Z,98393.00
2022-10-14T20:59:43.116Z,98393.00
2022-10-14T21:02:30.563Z,98381.00
2022-10-14T21:05:19.259Z,98366.00
2022-10-14T21:08:06.785Z,98357.00
2022-10-14T21:11:03.728Z,98356.00
2022-10-14T21:13:55.319Z,98365.00
2022-10-14T21:16:42.800Z,98369.00
2022-10-14T21:19:30.230Z,98373.00
2022-10-14T21:22:17.645Z,98368.00
2022-10-14T21:25:05.448Z,98374.00
2022-10-14T21:27:53.661Z,98363.00
2022-10-14T21:30:41.675Z,98351.00
2022-10-14T21:33:29.100Z,98348.00
2022-10-14T21:36:17.205Z,98345.00
2022-10-14T21:39:10.523Z,98344.00
2022-10-14T21:41:58.075Z,98348.00
2022-10-14T21:44:45.531Z,98351.00
2022-10-14T21:47:33.091Z,98357.00
2022-10-14T21:50:20.794Z,98364.00
2022-10-14T21:53:11.346Z,98367.00
2022-10-14T21:56:02.070Z,98356.00
2022-10-14T21:58:49.745Z,98357.00
2022-10-14T22:01:37.301Z,98346.00
2022-10-14T22:04:32.098Z,98341.00
2022-10-14T22:07:21.014Z,98340.00
2022-10-14T22:10:29.352Z,98335.00
2022-10-14T22:13:17.119Z,98335.00
2022-10-14T22:16:04.749Z,98329.00
2022-10-14T22:18:53.879Z,98326.00
2022-10-14T22:21:43.921Z,98319.00
2022-10-14T22:24:31.390Z,98323.00
2022-10-14T22:27:18.785Z,98305.00
2022-10-14T22:30:08.001Z,98311.00
2022-10-14T22:32:55.495Z,98303.00
2022-10-14T22:35:44.144Z,98319.00
2022-10-14T22:38:31.624Z,98310.00
2022-10-14T22:41:20.478Z,98313.00
2022-10-14T22:44:09.279Z,98305.00
2022-10-14T22:46:56.644Z,98313.00
2022-10-14T22:49:44.074Z,98303.00
2022-10-14T22:52:31.471Z,98303.00
2022-10-14T22:55:18.945Z,98308.00
2022-10-14T22:58:06.379Z,98305.00
2022-10-14T23:00:53.971Z,98316.00
2022-10-14T23:03:42.784Z,98315.00
2022-10-14T23:06:32.205Z,98314.00
2022-10-14T23:09:19.647Z,98319.00
2022-10-14T23:12:07.265Z,98309.00
2022-10-14T23:14:55.034Z,98315.00
2022-10-14T23:17:42.400Z,98310.00
2022-10-14T23:20:32.805Z,98299.00
2022-10-14T23:23:20.255Z,98298.00
2022-10-14T23:26:14.105Z,98289.00
2022-10-14T23:29:05.831Z,98289.00
2022-10-14T23:31:53.280Z,98283.00
2022-10-14T23:34:40.685Z,98273.00
2022-10-14T23:37:29.436Z,98280.00
2022-10-14T23:40:17.080Z,98271.00
2022-10-14T23:43:04.580Z,98265.00
2022-10-14T23:48:51.368Z,98269.00
2022-10-14T23:51:48.829Z,98274.00
2022-10-14T23:54:36.537Z,98275.00
2022-10-14T23:57:24.220Z,98266.00
